Bowersville, Ohio
Current Conditions -  °F | °C
As of 11:54 AM on Sunday 23 Nov 2014 (Local Time) from KILN Reporting Station
Few Clouds Few Clouds  
Wind Chill: 60°   Ceiling: Unl
Heat Index: 60°   Visibility: 10mi
Dew Point: 42°   Wind: 10mph
Humidity: 51%   Direction: 160°SSE
Pressure: 29.88"   Gusts: NA
Location:  39.58°N, 83.72°W
Report Text: KILN 231654Z AUTO 16009KT 10SM FEW070 16/06 A2988 RMK AO2 SLP125 T01560056
Loading
Personal Weather Stations






























Interactive Weather Map New forecast layout! Learn more

10-Day Weather Forecast

Advertisements
Track Severe Weather on mobile